createdAt,value
2022-10-08T00:02:03.393Z,58.00
2022-10-08T00:04:36.169Z,58.14
2022-10-08T00:07:09.171Z,58.27
2022-10-08T00:09:43.621Z,57.86
2022-10-08T00:12:16.497Z,57.56
2022-10-08T00:14:52.702Z,57.32
2022-10-08T00:17:24.550Z,57.47
2022-10-08T00:20:00.410Z,57.68
2022-10-08T00:22:35.028Z,57.80
2022-10-08T00:25:10.187Z,57.77
2022-10-08T00:27:44.170Z,57.88
2022-10-08T00:30:19.838Z,57.89
2022-10-08T00:32:57.709Z,57.93
2022-10-08T00:35:31.887Z,57.92
2022-10-08T00:38:07.827Z,57.91
2022-10-08T00:40:47.962Z,57.98
2022-10-08T00:43:37.212Z,58.03
2022-10-08T00:46:11.332Z,57.96
2022-10-08T00:48:44.923Z,58.00
2022-10-08T00:51:17.187Z,58.65
2022-10-08T00:53:50.940Z,58.83
2022-10-08T00:56:23.342Z,58.90
2022-10-08T00:58:58.097Z,59.06
2022-10-08T01:01:30.789Z,59.21
2022-10-08T01:04:06.744Z,59.29
2022-10-08T01:06:45.255Z,59.19
2022-10-08T01:09:21.709Z,59.14
2022-10-08T01:11:58.439Z,59.28
2022-10-08T01:14:40.384Z,59.21
2022-10-08T01:17:17.424Z,58.83
2022-10-08T01:20:19.239Z,58.54
2022-10-08T01:23:10.487Z,58.49
2022-10-08T01:25:50.698Z,58.75
2022-10-08T01:28:30.143Z,59.49
2022-10-08T01:31:08.127Z,59.61
2022-10-08T01:33:46.688Z,59.40
2022-10-08T01:36:20.945Z,59.39
2022-10-08T01:38:56.434Z,59.15
2022-10-08T01:41:31.251Z,58.63
2022-10-08T01:44:08.706Z,58.57
2022-10-08T01:46:45.327Z,59.28
2022-10-08T01:49:23.175Z,59.35
2022-10-08T01:52:01.771Z,59.36
2022-10-08T01:54:36.678Z,58.69
2022-10-08T01:57:10.577Z,58.41
2022-10-08T01:59:47.430Z,58.40
2022-10-08T02:02:23.671Z,58.41
2022-10-08T02:04:59.279Z,58.58
2022-10-08T02:07:37.381Z,58.63
2022-10-08T02:10:13.031Z,58.60
2022-10-08T02:12:45.876Z,58.57
2022-10-08T02:15:21.451Z,58.47
2022-10-08T02:17:57.797Z,58.46
2022-10-08T02:20:36.042Z,59.09
2022-10-08T02:23:15.167Z,59.54
2022-10-08T02:25:53.753Z,59.50
2022-10-08T02:28:30.975Z,59.52
2022-10-08T02:31:10.589Z,58.86
2022-10-08T02:33:45.761Z,58.71
2022-10-08T02:36:22.083Z,58.61
2022-10-08T02:38:58.981Z,58.47
2022-10-08T02:41:35.214Z,58.59
2022-10-08T02:44:18.440Z,58.64
2022-10-08T02:46:52.923Z,58.61
2022-10-08T02:49:30.387Z,58.41
2022-10-08T02:52:04.320Z,58.50
2022-10-08T02:54:39.621Z,58.52
2022-10-08T02:57:14.795Z,58.43
2022-10-08T02:59:48.388Z,58.29
2022-10-08T03:02:26.386Z,58.46
2022-10-08T03:05:02.714Z,58.56
2022-10-08T03:07:39.328Z,58.55
2022-10-08T03:10:13.191Z,58.63
2022-10-08T03:12:48.462Z,58.39
2022-10-08T03:15:21.875Z,58.35
2022-10-08T03:17:54.449Z,58.31
2022-10-08T03:20:30.351Z,58.37
2022-10-08T03:23:06.197Z,58.29
2022-10-08T03:25:40.994Z,58.41
2022-10-08T03:28:15.360Z,58.34
2022-10-08T03:30:49.715Z,58.23
2022-10-08T03:33:23.834Z,58.32
2022-10-08T03:35:55.963Z,58.53
2022-10-08T03:38:29.512Z,58.65
2022-10-08T03:41:05.612Z,58.64
2022-10-08T03:43:44.422Z,58.78
2022-10-08T03:46:19.195Z,58.97
2022-10-08T03:48:52.913Z,58.92
2022-10-08T03:51:26.557Z,58.90
2022-10-08T03:53:59.237Z,58.87
2022-10-08T03:56:33.291Z,58.84
2022-10-08T03:59:05.804Z,58.56
2022-10-08T04:01:38.541Z,58.68
2022-10-08T04:04:11.133Z,58.66
2022-10-08T04:06:45.808Z,58.68
2022-10-08T04:09:18.032Z,58.78
2022-10-08T04:11:51.986Z,58.82
2022-10-08T04:14:25.182Z,58.71
2022-10-08T04:17:00.343Z,58.59
2022-10-08T04:19:33.206Z,58.66
2022-10-08T04:22:05.743Z,58.59
2022-10-08T04:24:37.987Z,58.72
2022-10-08T04:27:09.800Z,58.71
2022-10-08T04:29:42.288Z,58.79
2022-10-08T04:32:14.226Z,58.82
2022-10-08T04:34:46.664Z,58.78
2022-10-08T04:37:20.415Z,58.89
2022-10-08T04:39:53.132Z,59.16
2022-10-08T04:42:27.030Z,59.07
2022-10-08T04:44:59.365Z,59.13
2022-10-08T04:47:33.432Z,59.13
2022-10-08T04:50:07.490Z,59.04
2022-10-08T04:52:41.092Z,58.97
2022-10-08T04:55:15.959Z,58.69
2022-10-08T04:57:51.719Z,58.53
2022-10-08T05:00:24.764Z,58.85
2022-10-08T05:02:59.277Z,58.98
2022-10-08T05:05:32.123Z,58.95
2022-10-08T05:08:05.880Z,59.08
2022-10-08T05:10:38.890Z,59.15
2022-10-08T05:13:11.066Z,59.24
2022-10-08T05:15:44.049Z,59.37
2022-10-08T05:18:17.546Z,59.60
2022-10-08T05:20:52.687Z,59.81
2022-10-08T05:23:24.976Z,59.80
2022-10-08T05:25:56.866Z,59.62
2022-10-08T05:28:30.604Z,59.60
2022-10-08T05:31:08.658Z,59.73
2022-10-08T05:33:41.488Z,59.67
2022-10-08T05:36:19.064Z,59.70
2022-10-08T05:38:59.065Z,59.93
2022-10-08T05:41:35.324Z,59.77
2022-10-08T05:44:09.760Z,60.00
2022-10-08T05:46:43.865Z,60.03
2022-10-08T05:49:20.993Z,59.58
2022-10-08T05:51:55.192Z,59.41
2022-10-08T05:54:27.871Z,59.82
2022-10-08T05:57:01.480Z,59.76
2022-10-08T05:59:34.196Z,59.68
2022-10-08T06:02:10.266Z,59.46
2022-10-08T06:04:43.814Z,59.60
2022-10-08T06:07:16.534Z,59.57
2022-10-08T06:09:52.333Z,59.57
2022-10-08T06:12:25.556Z,59.42
2022-10-08T06:14:59.594Z,59.57
2022-10-08T06:17:34.747Z,59.86
2022-10-08T06:20:09.663Z,59.89
2022-10-08T06:22:43.244Z,59.86
2022-10-08T06:25:17.617Z,59.88
2022-10-08T06:27:52.266Z,59.79
2022-10-08T06:30:27.996Z,59.99
2022-10-08T06:33:07.046Z,60.54
2022-10-08T06:35:40.198Z,59.95
2022-10-08T06:38:13.828Z,59.90
2022-10-08T06:40:47.024Z,59.71
2022-10-08T06:43:22.013Z,59.58
2022-10-08T06:45:55.616Z,59.42
2022-10-08T06:48:29.239Z,59.39
2022-10-08T06:51:06.304Z,60.27
2022-10-08T06:53:40.199Z,60.56
2022-10-08T06:56:19.264Z,60.09
2022-10-08T06:58:51.585Z,59.98
2022-10-08T07:01:31.855Z,60.09
2022-10-08T07:04:08.781Z,59.92
2022-10-08T07:06:41.904Z,59.17
2022-10-08T07:09:15.490Z,58.55
2022-10-08T07:11:48.426Z,58.63
2022-10-08T07:14:24.171Z,58.52
2022-10-08T07:16:57.254Z,58.45
2022-10-08T07:19:30.860Z,58.35
2022-10-08T07:22:03.777Z,58.24
2022-10-08T07:24:36.177Z,58.08
2022-10-08T07:27:09.972Z,57.82
2022-10-08T07:29:43.502Z,57.35
2022-10-08T07:32:17.156Z,57.26
2022-10-08T07:34:50.717Z,57.12
2022-10-08T07:37:23.139Z,57.03
2022-10-08T07:39:59.886Z,56.74
2022-10-08T07:42:32.794Z,56.51
2022-10-08T07:45:05.767Z,56.49
2022-10-08T07:47:39.375Z,56.59
2022-10-08T07:50:12.513Z,56.69
2022-10-08T07:52:45.292Z,56.61
2022-10-08T07:55:19.663Z,56.53
2022-10-08T07:57:52.723Z,56.10
2022-10-08T08:00:27.542Z,56.16
2022-10-08T08:03:00.348Z,56.18
2022-10-08T08:05:37.236Z,56.04
2022-10-08T08:08:09.617Z,56.18
2022-10-08T08:10:45.333Z,56.26
2022-10-08T08:13:18.132Z,55.82
2022-10-08T08:15:59.943Z,55.42
2022-10-08T08:18:34.461Z,55.31
2022-10-08T08:21:10.122Z,55.38
2022-10-08T08:23:47.950Z,54.55
2022-10-08T08:26:23.457Z,54.30
2022-10-08T08:28:58.173Z,53.68
2022-10-08T08:31:32.523Z,53.27
2022-10-08T08:34:08.026Z,52.90
2022-10-08T08:36:42.019Z,52.58
2022-10-08T08:39:18.851Z,52.46
2022-10-08T08:42:14.609Z,52.05
2022-10-08T08:44:48.708Z,51.80
2022-10-08T08:47:24.045Z,51.45
2022-10-08T08:49:59.174Z,51.25
2022-10-08T08:52:34.193Z,50.73
2022-10-08T08:55:12.825Z,50.16
2022-10-08T08:57:51.294Z,49.85
2022-10-08T09:00:36.305Z,49.32
2022-10-08T09:03:15.476Z,48.84
2022-10-08T09:05:49.713Z,48.69
2022-10-08T09:08:25.428Z,48.75
2022-10-08T09:11:00.635Z,48.14
2022-10-08T09:13:37.740Z,47.96
2022-10-08T09:16:12.888Z,47.93
2022-10-08T09:18:52.187Z,47.63
2022-10-08T09:21:28.336Z,47.30
2022-10-08T09:24:00.876Z,47.46
2022-10-08T09:26:35.892Z,47.44
2022-10-08T09:29:09.654Z,47.31
2022-10-08T09:31:48.905Z,47.27
2022-10-08T09:34:23.001Z,46.94
2022-10-08T09:37:06.479Z,46.85
2022-10-08T09:39:39.770Z,46.56
2022-10-08T09:42:18.305Z,46.10
2022-10-08T09:44:51.973Z,45.71
2022-10-08T09:47:25.880Z,45.77
2022-10-08T09:50:14.845Z,45.72
2022-10-08T09:52:47.772Z,45.53
2022-10-08T09:55:24.058Z,45.60
2022-10-08T09:58:00.560Z,45.44
2022-10-08T10:00:36.253Z,45.28
2022-10-08T10:03:19.450Z,45.77
2022-10-08T10:05:56.994Z,45.71
2022-10-08T10:09:07.208Z,45.58
2022-10-08T10:11:42.874Z,45.39
2022-10-08T10:14:21.758Z,45.39
2022-10-08T10:16:59.938Z,45.31
2022-10-08T10:19:45.063Z,45.11
2022-10-08T10:22:24.638Z,45.20
2022-10-08T10:25:04.541Z,45.28
2022-10-08T10:27:39.633Z,45.19
2022-10-08T10:30:19.129Z,45.35
2022-10-08T10:32:54.726Z,45.34
2022-10-08T10:35:28.572Z,44.87
2022-10-08T10:38:10.162Z,45.19
2022-10-08T10:40:46.181Z,45.54
2022-10-08T10:43:25.395Z,45.54
2022-10-08T10:46:16.385Z,45.54
2022-10-08T10:48:50.816Z,45.71
2022-10-08T10:51:54.565Z,45.68
2022-10-08T10:54:46.985Z,45.48
2022-10-08T10:57:31.020Z,45.69
2022-10-08T11:00:10.273Z,45.78
2022-10-08T11:02:48.100Z,45.73
2022-10-08T11:05:24.327Z,45.44
2022-10-08T11:08:15.509Z,45.55
2022-10-08T11:11:00.623Z,45.59
2022-10-08T11:13:47.316Z,45.71
2022-10-08T11:16:36.658Z,45.81
2022-10-08T11:19:17.527Z,45.96
2022-10-08T11:21:58.694Z,45.82
2022-10-08T11:24:42.397Z,45.88
2022-10-08T11:27:19.637Z,45.83
2022-10-08T11:29:56.752Z,45.75
2022-10-08T11:32:31.038Z,45.72
2022-10-08T11:35:18.965Z,45.97
2022-10-08T11:37:56.202Z,45.88
2022-10-08T11:40:32.306Z,45.78
2022-10-08T11:43:08.805Z,45.51
2022-10-08T11:45:47.092Z,45.57
2022-10-08T11:48:36.743Z,44.98
2022-10-08T11:51:30.350Z,44.46
2022-10-08T11:54:08.422Z,44.42
2022-10-08T11:56:44.484Z,44.35
2022-10-08T11:59:40.645Z,44.25
2022-10-08T12:02:25.853Z,43.94
2022-10-08T12:05:00.396Z,43.17
2022-10-08T12:07:37.803Z,43.08
2022-10-08T12:10:29.705Z,43.00
2022-10-08T12:13:24.467Z,43.06
2022-10-08T12:16:08.283Z,42.92
2022-10-08T12:18:52.724Z,42.67
2022-10-08T12:21:55.440Z,42.29
2022-10-08T12:24:58.839Z,42.11
2022-10-08T12:27:34.669Z,41.64
2022-10-08T12:30:09.729Z,41.90
2022-10-08T12:33:00.872Z,41.78
2022-10-08T12:35:38.807Z,41.22
2022-10-08T12:38:31.677Z,40.97
2022-10-08T12:41:16.022Z,40.91
2022-10-08T12:43:53.361Z,40.95
2022-10-08T12:46:34.692Z,41.09
2022-10-08T12:49:20.245Z,40.93
2022-10-08T12:51:59.640Z,40.26
2022-10-08T12:54:35.579Z,40.20
2022-10-08T12:57:13.597Z,40.46
2022-10-08T12:59:49.815Z,40.28
2022-10-08T13:02:40.274Z,40.37
2022-10-08T13:05:27.662Z,40.31
2022-10-08T13:08:12.016Z,40.23
2022-10-08T13:10:46.896Z,40.38
2022-10-08T13:13:45.022Z,40.01
2022-10-08T13:16:18.294Z,39.82
2022-10-08T13:18:53.760Z,40.11
2022-10-08T13:21:42.520Z,40.33
2022-10-08T13:24:38.243Z,40.55
2022-10-08T13:27:25.771Z,40.75
2022-10-08T13:30:01.468Z,40.73
2022-10-08T13:32:40.482Z,40.85
2022-10-08T13:35:23.698Z,40.89
2022-10-08T13:37:58.546Z,41.07
2022-10-08T13:40:31.621Z,41.08
2022-10-08T13:43:03.969Z,41.39
2022-10-08T13:45:42.143Z,41.52
2022-10-08T13:48:16.268Z,41.58
2022-10-08T13:50:52.550Z,42.06
2022-10-08T13:53:42.449Z,42.43
2022-10-08T13:56:23.357Z,42.62
2022-10-08T13:59:03.041Z,42.77
2022-10-08T14:01:35.104Z,42.92
2022-10-08T14:04:07.489Z,42.90
2022-10-08T14:06:40.111Z,43.07
2022-10-08T14:09:18.838Z,43.27
2022-10-08T14:11:56.330Z,43.11
2022-10-08T14:14:30.521Z,43.25
2022-10-08T14:17:05.234Z,43.37
2022-10-08T14:19:37.195Z,43.55
2022-10-08T14:22:14.101Z,43.88
2022-10-08T14:24:47.298Z,44.29
2022-10-08T14:27:19.960Z,44.29
2022-10-08T14:29:53.279Z,44.28
2022-10-08T14:32:27.140Z,44.39
2022-10-08T14:34:59.748Z,44.57
2022-10-08T14:37:31.613Z,44.53
2022-10-08T14:40:10.250Z,44.89
2022-10-08T14:42:42.716Z,44.89
2022-10-08T14:45:16.700Z,45.01
2022-10-08T14:47:53.053Z,45.45
2022-10-08T14:50:26.928Z,45.22
2022-10-08T14:53:00.783Z,45.14
2022-10-08T14:55:40.961Z,44.85
2022-10-08T14:58:23.674Z,44.72
2022-10-08T15:00:59.320Z,44.78
2022-10-08T15:03:31.838Z,44.71
2022-10-08T15:06:05.137Z,44.84
2022-10-08T15:08:41.242Z,44.96
2022-10-08T15:11:14.062Z,45.10
2022-10-08T15:13:46.843Z,45.12
2022-10-08T15:16:19.341Z,45.22
2022-10-08T15:18:51.689Z,45.31
2022-10-08T15:21:24.648Z,45.56
2022-10-08T15:23:59.190Z,45.83
2022-10-08T15:26:33.106Z,45.97
2022-10-08T15:29:05.833Z,46.08
2022-10-08T15:31:37.925Z,46.32
2022-10-08T15:34:14.227Z,46.50
2022-10-08T15:36:46.715Z,46.74
2022-10-08T15:39:23.341Z,46.92
2022-10-08T15:42:00.991Z,47.25
2022-10-08T15:44:34.987Z,47.54
2022-10-08T15:47:11.849Z,47.68
2022-10-08T15:49:45.912Z,47.82
2022-10-08T15:52:19.923Z,47.92
2022-10-08T15:54:52.171Z,48.06
2022-10-08T15:57:24.585Z,48.19
2022-10-08T15:59:58.400Z,48.21
2022-10-08T16:02:33.181Z,48.33
2022-10-08T16:05:06.166Z,48.57
2022-10-08T16:07:39.156Z,48.77
2022-10-08T16:10:11.661Z,48.89
2022-10-08T16:12:43.730Z,48.89
2022-10-08T16:15:15.580Z,49.09
2022-10-08T16:17:51.931Z,49.12
2022-10-08T16:20:24.382Z,49.26
2022-10-08T16:22:57.371Z,49.49
2022-10-08T16:25:29.374Z,49.57
2022-10-08T16:28:01.392Z,49.61
2022-10-08T16:30:37.717Z,49.95
2022-10-08T16:33:09.702Z,50.06
2022-10-08T16:35:42.113Z,50.21
2022-10-08T16:38:15.000Z,50.18
2022-10-08T16:40:48.917Z,50.32
2022-10-08T16:43:25.777Z,50.40
2022-10-08T16:45:58.331Z,50.55
2022-10-08T16:48:33.612Z,50.58
2022-10-08T16:51:08.536Z,50.61
2022-10-08T16:53:41.155Z,50.79
2022-10-08T16:56:13.289Z,50.78
2022-10-08T16:58:46.174Z,50.81
2022-10-08T17:01:19.408Z,51.02
2022-10-08T17:03:54.231Z,51.16
2022-10-08T17:06:28.260Z,51.26
2022-10-08T17:09:00.737Z,51.34
2022-10-08T17:11:34.752Z,51.70
2022-10-08T17:14:08.460Z,52.20
2022-10-08T17:16:43.449Z,52.49
2022-10-08T17:19:18.178Z,52.63
2022-10-08T17:21:52.085Z,52.82
2022-10-08T17:24:26.049Z,52.92
2022-10-08T17:26:58.857Z,52.97
2022-10-08T17:29:36.215Z,52.95
2022-10-08T17:32:09.605Z,53.04
2022-10-08T17:34:42.412Z,52.91
2022-10-08T17:37:15.730Z,52.56
2022-10-08T17:39:47.522Z,52.97
2022-10-08T17:42:21.361Z,53.07
2022-10-08T17:44:55.873Z,53.16
2022-10-08T17:47:29.410Z,53.23
2022-10-08T17:50:04.539Z,53.56
2022-10-08T17:52:36.967Z,53.68
2022-10-08T17:55:16.624Z,53.96
2022-10-08T17:57:51.727Z,54.03
2022-10-08T18:00:26.165Z,53.65
2022-10-08T18:02:58.767Z,53.60
2022-10-08T18:05:30.704Z,53.52
2022-10-08T18:08:03.882Z,54.09
2022-10-08T18:10:40.251Z,54.45
2022-10-08T18:13:12.796Z,54.48
2022-10-08T18:15:45.500Z,54.33
2022-10-08T18:18:18.191Z,54.48
2022-10-08T18:20:58.380Z,54.65
2022-10-08T18:23:31.225Z,54.80
2022-10-08T18:26:19.630Z,54.84
2022-10-08T18:28:52.671Z,55.38
2022-10-08T18:31:27.370Z,55.42
2022-10-08T18:34:03.895Z,55.33
2022-10-08T18:36:43.558Z,54.95
2022-10-08T18:39:17.707Z,54.85
2022-10-08T18:41:57.322Z,54.91
2022-10-08T18:44:32.433Z,54.84
2022-10-08T18:47:05.619Z,54.76
2022-10-08T18:49:40.221Z,54.94
2022-10-08T18:52:19.139Z,55.09
2022-10-08T18:54:53.993Z,55.27
2022-10-08T18:57:25.998Z,55.78
2022-10-08T18:59:59.050Z,56.18
2022-10-08T19:02:35.461Z,56.12
2022-10-08T19:05:12.181Z,56.13
2022-10-08T19:07:46.651Z,56.20
2022-10-08T19:10:19.587Z,56.29
2022-10-08T19:12:54.442Z,56.16
2022-10-08T19:15:33.497Z,56.18
2022-10-08T19:18:07.733Z,56.22
2022-10-08T19:20:39.657Z,56.30
2022-10-08T19:23:16.421Z,56.29
2022-10-08T19:25:48.501Z,56.47
2022-10-08T19:28:25.215Z,56.57
2022-10-08T19:30:58.727Z,56.69
2022-10-08T19:33:31.415Z,56.83
2022-10-08T19:36:06.341Z,56.83
2022-10-08T19:38:40.489Z,56.99
2022-10-08T19:41:14.247Z,56.99
2022-10-08T19:43:48.704Z,56.91
2022-10-08T19:46:23.314Z,56.83
2022-10-08T19:48:59.062Z,56.88
2022-10-08T19:51:32.956Z,56.84
2022-10-08T19:54:06.330Z,56.73
2022-10-08T19:56:42.730Z,56.62
2022-10-08T19:59:19.419Z,56.63
2022-10-08T20:01:52.182Z,56.64
2022-10-08T20:04:24.704Z,56.24
2022-10-08T20:07:02.597Z,56.03
2022-10-08T20:09:37.522Z,56.05
2022-10-08T20:12:11.280Z,56.04
2022-10-08T20:14:43.410Z,56.20
2022-10-08T20:17:20.504Z,56.64
2022-10-08T20:20:09.357Z,56.56
2022-10-08T20:22:51.458Z,56.64
2022-10-08T20:25:25.298Z,56.87
2022-10-08T20:27:58.965Z,56.77
2022-10-08T20:30:30.888Z,56.77
2022-10-08T20:33:04.036Z,56.58
2022-10-08T20:35:40.229Z,56.88
2022-10-08T20:38:13.858Z,56.98
2022-10-08T20:40:46.850Z,57.03
2022-10-08T20:43:20.054Z,57.06
2022-10-08T20:45:53.522Z,57.13
2022-10-08T20:48:25.679Z,57.12
2022-10-08T20:51:07.218Z,57.10
2022-10-08T20:53:40.300Z,57.13
2022-10-08T20:56:15.005Z,57.20
2022-10-08T20:58:47.282Z,57.15
2022-10-08T21:01:23.480Z,57.06
2022-10-08T21:03:56.479Z,56.56
2022-10-08T21:06:31.790Z,56.46
2022-10-08T21:09:06.850Z,56.81
2022-10-08T21:11:43.488Z,57.04
2022-10-08T21:14:18.235Z,57.10
2022-10-08T21:16:50.521Z,56.98
2022-10-08T21:19:26.241Z,56.49
2022-10-08T21:21:59.429Z,56.23
2022-10-08T21:24:31.434Z,56.25
2022-10-08T21:27:03.539Z,56.31
2022-10-08T21:29:38.188Z,56.42
2022-10-08T21:32:10.784Z,56.69
2022-10-08T21:34:42.511Z,56.76
2022-10-08T21:37:16.237Z,56.76
2022-10-08T21:39:48.996Z,56.73
2022-10-08T21:42:21.584Z,56.67
2022-10-08T21:44:55.162Z,56.60
2022-10-08T21:47:29.047Z,56.14
2022-10-08T21:50:02.385Z,55.86
2022-10-08T21:52:35.778Z,55.72
2022-10-08T21:55:09.839Z,55.56
2022-10-08T21:57:44.846Z,55.38
2022-10-08T22:00:18.234Z,55.13
2022-10-08T22:02:51.576Z,54.96
2022-10-08T22:05:29.987Z,54.75
2022-10-08T22:08:03.443Z,54.61
2022-10-08T22:10:39.609Z,54.34
2022-10-08T22:13:12.973Z,53.96
2022-10-08T22:15:53.919Z,53.77
2022-10-08T22:18:31.928Z,53.69
2022-10-08T22:21:07.583Z,53.43
2022-10-08T22:23:39.959Z,53.49
2022-10-08T22:26:14.393Z,53.58
2022-10-08T22:28:48.575Z,53.44
2022-10-08T22:31:23.352Z,53.48
2022-10-08T22:33:57.488Z,53.28
2022-10-08T22:36:34.191Z,53.21
2022-10-08T22:39:10.123Z,52.81
2022-10-08T22:41:42.453Z,52.83
2022-10-08T22:44:15.031Z,52.74
2022-10-08T22:46:47.543Z,52.40
2022-10-08T22:49:22.098Z,52.16
2022-10-08T22:51:55.537Z,52.22
2022-10-08T22:54:27.816Z,52.09
2022-10-08T22:57:02.645Z,51.92
2022-10-08T22:59:35.208Z,51.87
2022-10-08T23:02:08.359Z,51.72
2022-10-08T23:04:41.357Z,51.84
2022-10-08T23:07:14.864Z,52.06
2022-10-08T23:09:46.965Z,50.94
2022-10-08T23:12:20.041Z,50.53
2022-10-08T23:14:52.016Z,50.87
2022-10-08T23:17:24.635Z,50.93
2022-10-08T23:19:56.983Z,51.23
2022-10-08T23:22:30.806Z,51.52
2022-10-08T23:25:04.713Z,51.79
2022-10-08T23:27:38.321Z,52.18
2022-10-08T23:30:31.373Z,52.49
2022-10-08T23:33:07.651Z,52.83
2022-10-08T23:35:45.621Z,53.10
2022-10-08T23:38:24.971Z,53.39
2022-10-08T23:41:03.786Z,53.51
2022-10-08T23:43:38.436Z,53.62
2022-10-08T23:46:13.546Z,53.77
2022-10-08T23:48:45.905Z,53.90
2022-10-08T23:51:20.648Z,54.01
2022-10-08T23:53:55.065Z,54.06
2022-10-08T23:56:27.742Z,54.12
2022-10-08T23:59:01.579Z,54.26
